createdAt,value
2019-05-10T00:01:30.059Z,16.70
2019-05-10T00:04:16.915Z,16.60
2019-05-10T00:07:03.862Z,16.70
2019-05-10T00:09:31.970Z,16.60
2019-05-10T00:12:02.662Z,16.60
2019-05-10T00:14:45.512Z,16.60
2019-05-10T00:17:16.289Z,16.60
2019-05-10T00:19:45.112Z,16.60
2019-05-10T00:22:13.858Z,16.60
2019-05-10T00:24:42.614Z,16.60
2019-05-10T00:27:11.359Z,16.60
2019-05-10T00:29:40.159Z,16.60
2019-05-10T00:32:08.927Z,16.60
2019-05-10T00:34:37.676Z,16.60
2019-05-10T00:37:06.548Z,16.50
2019-05-10T00:39:35.302Z,16.50
2019-05-10T00:42:04.056Z,16.50
2019-05-10T00:44:32.954Z,16.50
2019-05-10T00:47:01.780Z,16.50
2019-05-10T00:49:30.535Z,16.40
2019-05-10T00:51:59.326Z,16.40
2019-05-10T00:54:28.083Z,16.40
2019-05-10T00:56:56.839Z,16.40
2019-05-10T00:59:25.666Z,16.40
2019-05-10T01:01:54.482Z,16.30
2019-05-10T01:04:25.019Z,16.30
2019-05-10T01:06:56.355Z,16.40
2019-05-10T01:09:24.241Z,16.30
2019-05-10T01:11:53.124Z,16.30
2019-05-10T01:14:22.012Z,16.30
2019-05-10T01:16:50.803Z,16.30
2019-05-10T01:19:19.623Z,16.30
2019-05-10T01:21:48.382Z,16.30
2019-05-10T01:24:17.130Z,16.20
2019-05-10T01:26:45.923Z,16.20
2019-05-10T01:29:14.724Z,16.20
2019-05-10T01:31:43.533Z,16.20
2019-05-10T01:34:12.324Z,16.20
2019-05-10T01:36:41.060Z,16.20
2019-05-10T01:39:09.885Z,16.20
2019-05-10T01:41:38.681Z,16.20
2019-05-10T01:44:07.436Z,16.10
2019-05-10T01:46:36.212Z,16.10
2019-05-10T01:49:05.005Z,16.10
2019-05-10T01:51:33.827Z,16.10
2019-05-10T01:54:02.578Z,16.10
2019-05-10T01:56:31.372Z,16.10
2019-05-10T01:59:00.234Z,16.10
2019-05-10T02:01:28.979Z,16.10
2019-05-10T02:03:57.770Z,16.10
2019-05-10T02:06:26.578Z,16.10
2019-05-10T02:08:55.400Z,16.10
2019-05-10T02:11:24.353Z,16.10
2019-05-10T02:13:53.184Z,16.10
2019-05-10T02:16:22.128Z,16.10
2019-05-10T02:18:50.938Z,16.10
2019-05-10T02:21:19.783Z,16.10
2019-05-10T02:23:48.549Z,16.10
2019-05-10T02:26:17.411Z,16.00
2019-05-10T02:28:46.183Z,16.00
2019-05-10T02:31:14.947Z,16.00
2019-05-10T02:33:43.771Z,16.00
2019-05-10T02:36:12.586Z,15.90
2019-05-10T02:38:41.414Z,15.90
2019-05-10T02:41:10.607Z,15.90
2019-05-10T02:43:39.355Z,15.90
2019-05-10T02:46:08.180Z,15.80
2019-05-10T02:48:37.116Z,15.80
2019-05-10T02:51:05.947Z,15.80
2019-05-10T02:53:34.777Z,15.80
2019-05-10T02:56:03.868Z,15.80
2019-05-10T02:58:33.735Z,15.80
2019-05-10T03:01:04.328Z,15.80
2019-05-10T03:03:33.487Z,15.80
2019-05-10T03:06:05.028Z,15.80
2019-05-10T03:08:51.334Z,15.90
2019-05-10T03:11:20.219Z,15.80
2019-05-10T03:13:51.144Z,15.80
2019-05-10T03:16:22.393Z,15.80
2019-05-10T03:18:53.461Z,15.80
2019-05-10T03:21:24.416Z,15.80
2019-05-10T03:23:53.459Z,15.80
2019-05-10T03:26:22.426Z,15.80
2019-05-10T03:28:51.253Z,15.80
2019-05-10T03:31:20.054Z,15.80
2019-05-10T03:33:55.457Z,15.80
2019-05-10T03:36:19.287Z,15.80
2019-05-10T03:38:48.424Z,15.80
2019-05-10T03:41:17.390Z,15.70
2019-05-10T03:43:46.231Z,15.70
2019-05-10T03:46:15.048Z,15.70
2019-05-10T03:48:43.930Z,15.70
2019-05-10T03:51:12.692Z,15.70
2019-05-10T03:53:41.590Z,15.70
2019-05-10T03:56:10.396Z,15.70
2019-05-10T03:58:39.214Z,15.80
2019-05-10T04:01:08.080Z,15.80
2019-05-10T04:03:36.934Z,15.80
2019-05-10T04:06:05.686Z,15.80
2019-05-10T04:08:34.553Z,15.80
2019-05-10T04:11:03.293Z,15.80
2019-05-10T04:13:32.094Z,15.80
2019-05-10T04:16:00.977Z,15.80
2019-05-10T04:18:29.738Z,15.80
2019-05-10T04:20:59.418Z,15.80
2019-05-10T04:23:28.294Z,15.80
2019-05-10T04:25:57.146Z,15.80
2019-05-10T04:28:25.983Z,15.80
2019-05-10T04:30:54.778Z,15.80
2019-05-10T04:33:23.619Z,15.80
2019-05-10T04:35:52.386Z,15.80
2019-05-10T04:38:21.270Z,15.90
2019-05-10T04:40:50.074Z,15.90
2019-05-10T04:43:18.860Z,15.90
2019-05-10T04:45:47.686Z,15.90
2019-05-10T04:48:16.461Z,15.90
2019-05-10T04:50:48.988Z,15.90
2019-05-10T04:53:15.733Z,15.90
2019-05-10T04:55:44.493Z,15.90
2019-05-10T04:58:13.259Z,15.90
2019-05-10T05:00:42.147Z,16.00
2019-05-10T05:03:10.901Z,16.00
2019-05-10T05:05:39.643Z,16.00
2019-05-10T05:08:08.455Z,16.00
2019-05-10T05:10:37.303Z,16.00
2019-05-10T05:13:06.162Z,16.00
2019-05-10T05:15:34.943Z,16.00
2019-05-10T05:18:03.756Z,16.10
2019-05-10T05:20:32.611Z,16.10
2019-05-10T05:23:02.282Z,16.10
2019-05-10T05:25:35.162Z,16.10
2019-05-10T05:28:08.042Z,16.10
2019-05-10T05:30:32.084Z,16.10
2019-05-10T05:33:00.945Z,16.10
2019-05-10T05:35:29.750Z,16.10
2019-05-10T05:37:58.539Z,16.10
2019-05-10T05:40:27.316Z,16.10
2019-05-10T05:42:56.151Z,16.10
2019-05-10T05:45:28.346Z,16.20
2019-05-10T05:47:55.368Z,16.20
2019-05-10T05:50:24.208Z,16.20
2019-05-10T05:52:53.022Z,16.20
2019-05-10T05:55:23.109Z,16.30
2019-05-10T05:57:52.216Z,16.30
2019-05-10T06:00:21.011Z,16.30
2019-05-10T06:02:49.795Z,16.30
2019-05-10T06:05:32.229Z,16.30
2019-05-10T06:07:52.092Z,16.30
2019-05-10T06:10:19.920Z,16.20
2019-05-10T06:12:50.517Z,16.30
2019-05-10T06:15:23.047Z,16.20
2019-05-10T06:17:56.657Z,16.30
2019-05-10T06:20:20.103Z,16.30
2019-05-10T06:23:04.920Z,16.30
2019-05-10T06:25:37.731Z,16.30
2019-05-10T06:27:50.637Z,16.30
2019-05-10T06:30:19.736Z,16.40
2019-05-10T06:32:53.127Z,16.40
2019-05-10T06:35:19.558Z,16.50
2019-05-10T06:37:49.654Z,16.50
2019-05-10T06:40:25.232Z,16.50
2019-05-10T06:42:48.901Z,16.60
2019-05-10T06:47:54.594Z,16.50
2019-05-10T06:50:30.009Z,16.70
2019-05-10T06:52:53.814Z,16.80
2019-05-10T06:55:22.595Z,16.90
2019-05-10T06:57:59.335Z,16.90
2019-05-10T07:00:21.907Z,16.90
2019-05-10T07:02:51.045Z,16.90
2019-05-10T07:05:19.946Z,16.90
2019-05-10T07:07:48.776Z,16.90
2019-05-10T07:10:19.579Z,16.90
2019-05-10T07:12:48.053Z,16.90
2019-05-10T07:15:16.974Z,16.90
2019-05-10T07:17:47.358Z,17.00
2019-05-10T07:20:16.516Z,17.00
2019-05-10T07:22:45.287Z,17.00
2019-05-10T07:25:14.181Z,17.10
2019-05-10T07:27:44.228Z,17.10
2019-05-10T07:30:13.463Z,17.10
2019-05-10T07:32:45.291Z,17.20
2019-05-10T07:35:14.231Z,17.30
2019-05-10T07:37:47.600Z,17.40
2019-05-10T07:40:13.655Z,17.50
2019-05-10T07:42:45.612Z,17.50
2019-05-10T07:45:12.840Z,17.60
2019-05-10T07:47:41.691Z,17.60
2019-05-10T07:50:11.644Z,17.70
2019-05-10T07:52:43.961Z,17.80
2019-05-10T07:55:11.144Z,17.80
2019-05-10T07:57:39.965Z,17.90
2019-05-10T08:00:09.772Z,17.90
2019-05-10T08:02:38.554Z,18.00
2019-05-10T08:05:10.783Z,18.10
2019-05-10T08:07:38.787Z,18.10
2019-05-10T08:10:08.932Z,18.20
2019-05-10T08:12:41.314Z,18.30
2019-05-10T08:15:09.412Z,18.50
2019-05-10T08:17:43.383Z,18.60
2019-05-10T08:20:25.663Z,18.70
2019-05-10T08:22:44.897Z,18.80
2019-05-10T08:25:12.626Z,18.90
2019-05-10T08:27:44.111Z,19.00
2019-05-10T08:30:28.005Z,19.20
2019-05-10T08:32:42.717Z,19.30
2019-05-10T08:35:16.833Z,19.40
2019-05-10T08:37:43.363Z,19.50
2019-05-10T08:40:13.251Z,19.60
2019-05-10T08:42:48.223Z,19.70
2019-05-10T08:45:13.527Z,19.80
2019-05-10T08:47:42.794Z,19.80
2019-05-10T08:50:28.797Z,19.80
2019-05-10T08:52:43.813Z,19.80
2019-05-10T08:55:12.924Z,19.80
2019-05-10T08:57:44.582Z,19.70
2019-05-10T09:00:45.610Z,19.80
2019-05-10T09:03:09.568Z,19.90
2019-05-10T09:05:34.692Z,20.00
2019-05-10T09:08:05.881Z,20.00
2019-05-10T09:10:34.392Z,20.10
2019-05-10T09:13:03.535Z,20.10
2019-05-10T09:15:33.096Z,20.10
2019-05-10T09:18:04.125Z,20.20
2019-05-10T09:20:32.458Z,20.20
2019-05-10T09:23:02.353Z,20.30
2019-05-10T09:25:33.735Z,20.40
2019-05-10T09:28:10.734Z,20.40
2019-05-10T09:30:35.423Z,20.50
2019-05-10T09:33:10.351Z,20.40
2019-05-10T09:35:39.019Z,20.40
2019-05-10T09:38:06.692Z,20.40
2019-05-10T09:40:42.444Z,20.40
2019-05-10T09:43:09.615Z,20.30
2019-05-10T09:45:36.511Z,20.20
2019-05-10T09:48:05.365Z,20.30
2019-05-10T09:50:41.307Z,20.30
2019-05-10T09:53:06.724Z,20.30
2019-05-10T09:55:36.948Z,20.50
2019-05-10T09:58:05.369Z,20.70
2019-05-10T10:00:38.006Z,20.70
2019-05-10T10:03:08.182Z,20.70
2019-05-10T10:05:39.723Z,20.70
2019-05-10T10:08:09.274Z,20.60
2019-05-10T10:10:37.688Z,20.60
2019-05-10T10:13:13.261Z,20.70
2019-05-10T10:15:37.386Z,20.70
2019-05-10T10:18:06.214Z,20.90
2019-05-10T10:20:40.652Z,20.90
2019-05-10T10:23:07.263Z,20.90
2019-05-10T10:25:40.595Z,21.00
2019-05-10T10:28:08.195Z,21.10
2019-05-10T10:30:37.536Z,21.20
2019-05-10T10:33:11.825Z,21.30
2019-05-10T10:35:38.182Z,21.40
2019-05-10T10:38:07.992Z,21.50
2019-05-10T10:40:44.351Z,21.50
2019-05-10T10:43:07.775Z,21.60
2019-05-10T10:45:37.637Z,21.70
2019-05-10T10:48:10.566Z,21.70
2019-05-10T10:50:37.158Z,21.80
2019-05-10T10:53:08.021Z,21.90
2019-05-10T10:55:39.930Z,22.00
2019-05-10T10:58:07.498Z,22.00
2019-05-10T11:00:38.928Z,22.10
2019-05-10T11:03:07.305Z,22.10
2019-05-10T11:05:36.032Z,22.00
2019-05-10T11:08:04.871Z,22.10
2019-05-10T11:10:33.628Z,22.10
2019-05-10T11:13:10.692Z,22.00
2019-05-10T11:15:36.175Z,22.10
2019-05-10T11:18:03.905Z,22.20
2019-05-10T11:20:33.712Z,22.10
2019-05-10T11:23:02.649Z,22.00
2019-05-10T11:25:31.420Z,22.00
2019-05-10T11:28:01.769Z,22.00
2019-05-10T11:30:32.534Z,21.90
2019-05-10T11:33:01.617Z,21.90
2019-05-10T11:35:31.986Z,21.80
2019-05-10T11:38:06.599Z,21.80
2019-05-10T11:40:35.024Z,21.90
2019-05-10T11:43:02.740Z,22.00
2019-05-10T11:45:35.102Z,22.10
2019-05-10T11:48:02.341Z,22.30
2019-05-10T11:50:35.071Z,22.30
2019-05-10T11:53:01.695Z,22.40
2019-05-10T11:55:30.942Z,22.50
2019-05-10T11:59:04.727Z,22.60
2019-05-10T12:00:34.106Z,22.80
2019-05-10T12:03:08.928Z,22.90
2019-05-10T12:05:32.191Z,22.90
2019-05-10T12:08:02.179Z,23.00
2019-05-10T12:10:32.085Z,23.00
2019-05-10T12:13:11.290Z,22.90
2019-05-10T12:15:32.022Z,22.90
2019-05-10T12:18:04.899Z,22.80
2019-05-10T12:20:41.457Z,22.70
2019-05-10T12:23:03.383Z,22.60
2019-05-10T12:25:46.357Z,22.50
2019-05-10T12:28:02.932Z,22.40
2019-05-10T12:30:34.846Z,22.20
2019-05-10T12:33:09.682Z,22.20
2019-05-10T12:35:42.642Z,22.10
2019-05-10T12:38:11.199Z,22.00
2019-05-10T12:40:41.744Z,22.00
2019-05-10T12:43:11.030Z,22.00
2019-05-10T12:45:41.796Z,22.00
2019-05-10T12:48:10.473Z,22.20
2019-05-10T13:03:11.139Z,22.40
2019-05-10T13:05:31.891Z,22.60
2019-05-10T13:07:55.983Z,22.60
2019-05-10T13:10:24.779Z,22.50
2019-05-10T13:12:53.603Z,22.40
2019-05-10T13:15:24.826Z,22.30
2019-05-10T13:17:53.267Z,22.20
2019-05-10T13:20:22.325Z,22.20
2019-05-10T13:22:51.054Z,22.10
2019-05-10T13:25:20.598Z,22.00
2019-05-10T13:27:49.374Z,22.00
2019-05-10T13:30:27.137Z,21.90
2019-05-10T13:32:53.096Z,21.90
2019-05-10T13:35:19.421Z,21.80
2019-05-10T13:37:48.242Z,21.80
2019-05-10T13:40:17.022Z,21.80
2019-05-10T13:42:46.144Z,21.70
2019-05-10T13:45:15.114Z,21.60
2019-05-10T13:47:43.942Z,21.70
2019-05-10T13:50:13.032Z,21.70
2019-05-10T13:52:41.786Z,21.80
2019-05-10T13:55:10.718Z,21.80
2019-05-10T13:57:39.507Z,21.90
2019-05-10T14:00:08.905Z,22.20
2019-05-10T14:02:37.646Z,22.60
2019-05-10T14:05:11.863Z,23.00
2019-05-10T14:07:37.666Z,23.10
2019-05-10T14:10:06.640Z,23.50
2019-05-10T14:12:35.448Z,23.70
2019-05-10T14:15:09.864Z,23.60
2019-05-10T14:17:36.340Z,23.30
2019-05-10T14:20:07.118Z,23.30
2019-05-10T14:22:35.905Z,23.30
2019-05-10T14:25:07.297Z,23.20
2019-05-10T14:27:38.061Z,23.20
2019-05-10T14:30:13.572Z,23.10
2019-05-10T14:32:38.885Z,22.90
2019-05-10T14:35:08.783Z,22.80
2019-05-10T14:37:37.596Z,22.70
2019-05-10T14:40:07.793Z,22.50
2019-05-10T14:42:36.619Z,22.20
2019-05-10T14:45:06.324Z,22.00
2019-05-10T14:47:46.281Z,21.90
2019-05-10T14:50:06.489Z,21.60
2019-05-10T14:52:35.226Z,21.30
2019-05-10T14:55:05.986Z,21.10
2019-05-10T14:57:34.728Z,20.90
2019-05-10T15:00:04.586Z,20.80
2019-05-10T15:02:33.307Z,20.50
2019-05-10T15:05:02.089Z,20.30
2019-05-10T15:07:30.898Z,20.30
2019-05-10T15:10:00.320Z,20.10
2019-05-10T15:12:30.112Z,20.00
2019-05-10T15:14:58.857Z,19.90
2019-05-10T15:17:30.036Z,19.90
2019-05-10T15:20:00.043Z,19.80
2019-05-10T15:22:28.378Z,19.80
2019-05-10T15:24:57.139Z,19.70
2019-05-10T15:27:25.872Z,19.70
2019-05-10T15:29:58.839Z,19.60
2019-05-10T15:32:25.017Z,19.60
2019-05-10T15:35:06.312Z,19.50
2019-05-10T15:37:24.165Z,19.40
2019-05-10T15:39:52.984Z,19.40
2019-05-10T15:42:22.124Z,19.40
2019-05-10T15:44:50.869Z,19.30
2019-05-10T15:47:22.171Z,19.30
2019-05-10T15:49:54.755Z,19.20
2019-05-10T15:52:23.418Z,19.20
2019-05-10T15:54:51.672Z,19.10
2019-05-10T15:57:22.003Z,19.10
2019-05-10T15:59:56.328Z,19.00
2019-05-10T16:02:21.283Z,19.10
2019-05-10T16:04:50.030Z,19.00
2019-05-10T16:07:18.774Z,19.00
2019-05-10T16:09:49.978Z,19.00
2019-05-10T16:12:17.931Z,19.00
2019-05-10T16:14:46.660Z,18.90
2019-05-10T16:17:17.631Z,18.80
2019-05-10T16:19:50.984Z,18.90
2019-05-10T16:22:16.288Z,18.80
2019-05-10T16:24:45.093Z,18.80
2019-05-10T16:27:13.944Z,18.80
2019-05-10T16:29:42.743Z,18.80
2019-05-10T16:32:11.529Z,18.80
2019-05-10T16:34:40.280Z,18.80
2019-05-10T16:37:09.034Z,18.80
2019-05-10T16:39:37.878Z,18.70
2019-05-10T16:42:06.624Z,18.70
2019-05-10T16:44:35.379Z,18.70
2019-05-10T16:47:04.242Z,18.70
2019-05-10T16:49:33.878Z,18.70
2019-05-10T16:52:02.658Z,18.70
2019-05-10T16:54:31.530Z,18.70
2019-05-10T16:57:01.442Z,18.60
2019-05-10T16:59:31.385Z,18.70
2019-05-10T17:02:04.667Z,18.70
2019-05-10T17:04:31.898Z,18.60
2019-05-10T17:07:01.125Z,18.60
2019-05-10T17:09:29.947Z,18.60
2019-05-10T17:11:59.174Z,18.60
2019-05-10T17:14:28.296Z,18.50
2019-05-10T17:16:59.757Z,18.50
2019-05-10T17:19:27.946Z,18.50
2019-05-10T17:21:57.857Z,18.50
2019-05-10T17:24:26.651Z,18.40
2019-05-10T17:26:55.408Z,18.40
2019-05-10T17:29:24.129Z,18.40
2019-05-10T17:31:52.988Z,18.40
2019-05-10T17:34:28.989Z,18.30
2019-05-10T17:36:58.134Z,18.30
2019-05-10T17:39:26.198Z,18.30
2019-05-10T17:41:57.745Z,18.30
2019-05-10T17:44:24.792Z,18.20
2019-05-10T17:46:55.316Z,18.20
2019-05-10T17:49:24.236Z,18.20
2019-05-10T17:51:53.936Z,18.20
2019-05-10T17:54:22.736Z,18.20
2019-05-10T17:56:51.488Z,18.20
2019-05-10T17:59:20.303Z,18.10
2019-05-10T18:01:49.121Z,18.10
2019-05-10T18:04:17.860Z,18.10
2019-05-10T18:06:46.720Z,18.10
2019-05-10T18:09:15.470Z,18.10
2019-05-10T18:11:45.016Z,18.00
2019-05-10T18:14:17.895Z,18.00
2019-05-10T18:16:47.899Z,18.00
2019-05-10T18:19:18.995Z,18.00
2019-05-10T18:21:45.200Z,18.00
2019-05-10T18:24:14.033Z,17.90
2019-05-10T18:26:42.839Z,17.90
2019-05-10T18:29:11.657Z,17.90
2019-05-10T18:31:40.483Z,17.80
2019-05-10T18:34:09.229Z,17.70
2019-05-10T18:36:51.095Z,17.60
2019-05-10T18:39:14.835Z,17.50
2019-05-10T18:41:41.452Z,17.50
2019-05-10T18:44:14.266Z,17.40
2019-05-10T18:46:40.289Z,17.40
2019-05-10T18:49:09.044Z,17.40
2019-05-10T18:51:37.821Z,17.30
2019-05-10T18:54:07.584Z,17.30
2019-05-10T18:56:36.373Z,17.20
2019-05-10T18:59:07.583Z,17.20
2019-05-10T19:01:38.673Z,17.20
2019-05-10T19:04:07.357Z,17.20
2019-05-10T19:06:36.544Z,17.20
2019-05-10T19:09:07.010Z,17.10
2019-05-10T19:11:39.084Z,17.10
2019-05-10T19:14:06.161Z,17.10
2019-05-10T19:16:34.999Z,17.10
2019-05-10T19:19:03.960Z,17.10
2019-05-10T19:21:32.854Z,17.00
2019-05-10T19:24:01.628Z,17.00
2019-05-10T19:26:31.654Z,17.10
2019-05-10T19:29:05.316Z,17.10
2019-05-10T19:31:31.838Z,17.10
2019-05-10T19:34:01.448Z,17.10
2019-05-10T19:36:30.199Z,17.10
2019-05-10T19:38:59.044Z,17.10
2019-05-10T19:41:27.871Z,17.10
2019-05-10T19:44:02.319Z,17.10
2019-05-10T19:46:30.127Z,17.00
2019-05-10T19:48:57.599Z,17.10
2019-05-10T19:51:26.418Z,17.10
2019-05-10T19:53:55.270Z,17.10
2019-05-10T19:56:30.219Z,17.10
2019-05-10T19:58:55.304Z,17.10
2019-05-10T20:01:24.107Z,17.10
2019-05-10T20:03:52.863Z,17.10
2019-05-10T20:06:21.673Z,17.10
2019-05-10T20:08:50.445Z,17.10
2019-05-10T20:11:19.177Z,17.10
2019-05-10T20:13:48.004Z,17.10
2019-05-10T20:16:16.779Z,17.10
2019-05-10T20:18:45.522Z,17.10
2019-05-10T20:21:14.292Z,17.10
2019-05-10T20:23:43.055Z,17.00
2019-05-10T20:26:11.807Z,17.10
2019-05-10T20:28:40.564Z,17.00
2019-05-10T20:31:09.292Z,17.10
2019-05-10T20:33:38.019Z,17.10
2019-05-10T20:36:06.773Z,17.10
2019-05-10T20:38:35.583Z,17.10
2019-05-10T20:41:04.314Z,17.10
2019-05-10T20:43:33.082Z,17.10
2019-05-10T20:46:01.941Z,17.10
2019-05-10T20:48:30.756Z,17.10
2019-05-10T20:50:59.502Z,17.10
2019-05-10T20:53:28.318Z,17.10
2019-05-10T20:55:57.063Z,17.20
2019-05-10T20:58:26.711Z,17.10
2019-05-10T21:00:55.566Z,17.10
2019-05-10T21:03:24.380Z,17.10
2019-05-10T21:05:53.124Z,17.10
2019-05-10T21:08:21.933Z,17.20
2019-05-10T21:10:50.763Z,17.20
2019-05-10T21:13:19.569Z,17.10
2019-05-10T21:15:48.375Z,17.10
2019-05-10T21:18:17.127Z,17.20
2019-05-10T21:20:45.884Z,17.10
2019-05-10T21:23:14.662Z,17.10
2019-05-10T21:25:43.487Z,17.10
2019-05-10T21:28:12.296Z,17.10
2019-05-10T21:30:41.094Z,17.10
2019-05-10T21:33:09.945Z,17.10
2019-05-10T21:35:38.682Z,17.10
2019-05-10T21:38:07.550Z,17.10
2019-05-10T21:40:36.381Z,17.10
2019-05-10T21:43:05.227Z,17.10
2019-05-10T21:45:34.029Z,17.10
2019-05-10T21:48:02.768Z,17.00
2019-05-10T21:50:31.537Z,17.00
2019-05-10T21:53:00.310Z,17.00
2019-05-10T21:55:29.051Z,17.00
2019-05-10T21:57:57.797Z,17.00
2019-05-10T22:00:29.180Z,16.90
2019-05-10T22:02:57.940Z,16.90
2019-05-10T22:05:26.663Z,16.90
2019-05-10T22:07:55.522Z,16.90
2019-05-10T22:10:24.274Z,16.90
2019-05-10T22:12:53.012Z,16.90
2019-05-10T22:15:21.811Z,16.80
2019-05-10T22:17:50.543Z,16.80
2019-05-10T22:20:19.362Z,16.70
2019-05-10T22:22:48.152Z,16.70
2019-05-10T22:25:16.883Z,16.70
2019-05-10T22:27:45.635Z,16.70
2019-05-10T22:30:14.800Z,16.70
2019-05-10T22:32:43.632Z,16.60
2019-05-10T22:35:12.397Z,16.60
2019-05-10T22:37:41.182Z,16.60
2019-05-10T22:40:09.916Z,16.60
2019-05-10T22:42:38.667Z,16.70
2019-05-10T22:45:07.670Z,16.60
2019-05-10T22:47:36.416Z,16.70
2019-05-10T22:50:07.615Z,16.70
2019-05-10T22:52:36.404Z,16.70
2019-05-10T22:55:06.343Z,16.70
2019-05-10T22:57:35.111Z,16.70
2019-05-10T23:00:05.377Z,16.70
2019-05-10T23:02:35.097Z,16.80
2019-05-10T23:05:04.397Z,16.70
2019-05-10T23:07:33.138Z,16.80
2019-05-10T23:10:02.206Z,16.80
2019-05-10T23:12:30.963Z,16.80
2019-05-10T23:14:59.810Z,16.80
2019-05-10T23:17:28.641Z,16.80
2019-05-10T23:19:57.382Z,16.80
2019-05-10T23:22:26.181Z,16.90
2019-05-10T23:24:54.999Z,16.80
2019-05-10T23:27:23.732Z,16.80
2019-05-10T23:29:52.547Z,16.80
2019-05-10T23:32:21.295Z,16.80
2019-05-10T23:34:50.106Z,16.80
2019-05-10T23:37:18.949Z,16.80
2019-05-10T23:39:47.846Z,16.70
2019-05-10T23:42:16.641Z,16.70
2019-05-10T23:44:45.475Z,16.70
2019-05-10T23:47:14.260Z,16.60
2019-05-10T23:49:43.069Z,16.70
2019-05-10T23:52:11.857Z,16.60
2019-05-10T23:54:40.595Z,16.60
2019-05-10T23:57:09.292Z,16.60
2019-05-10T23:59:38.040Z,16.60
